createdAt,value
2023-12-29T00:01:43.044Z,8.8
2023-12-29T00:06:49.695Z,8.8
2023-12-29T00:11:42.971Z,8
2023-12-29T00:16:42.994Z,7.9
2023-12-29T00:21:43.018Z,8
2023-12-29T00:26:43.971Z,8.7
2023-12-29T00:31:43.310Z,8
2023-12-29T00:36:43.063Z,8.2
2023-12-29T00:41:46.018Z,7.9
2023-12-29T00:46:42.988Z,7.9
2023-12-29T00:51:43.013Z,8.2
2023-12-29T00:56:43.005Z,8
2023-12-29T01:01:43.562Z,7.6
2023-12-29T01:06:43.264Z,7.6
2023-12-29T01:11:42.986Z,7.6
2023-12-29T01:16:43.028Z,7.7
2023-12-29T01:21:43.009Z,7.7
2023-12-29T01:26:42.970Z,7.6
2023-12-29T01:31:43.026Z,7
2023-12-29T01:36:42.996Z,7
2023-12-29T01:41:43.188Z,7.3
2023-12-29T01:46:43.018Z,7.3
2023-12-29T01:51:42.998Z,7.3
2023-12-29T01:56:42.956Z,7.7
2023-12-29T02:01:43.057Z,7.8
2023-12-29T02:06:43.316Z,7.8
2023-12-29T02:11:43.443Z,8
2023-12-29T02:16:43.002Z,8.8
2023-12-29T02:21:42.975Z,8.8
2023-12-29T02:26:42.984Z,9.1
2023-12-29T02:31:43.018Z,9.1
2023-12-29T02:36:42.983Z,9.1
2023-12-29T02:41:42.993Z,9.1
2023-12-29T02:46:43.032Z,9.6
2023-12-29T02:51:42.993Z,9.6
2023-12-29T02:56:42.999Z,9.7
2023-12-29T03:01:43.052Z,10.3
2023-12-29T03:06:43.054Z,10.8
2023-12-29T03:11:43.054Z,10.3
2023-12-29T03:16:42.979Z,10.8
2023-12-29T03:21:43.057Z,10.8
2023-12-29T03:26:43.016Z,10.9
2023-12-29T03:31:43.060Z,10.9
2023-12-29T03:36:42.987Z,9.9
2023-12-29T03:41:43.158Z,9.8
2023-12-29T03:46:43.026Z,9.8
2023-12-29T03:51:42.992Z,9.8
2023-12-29T03:56:42.983Z,9.9
2023-12-29T04:01:43.028Z,9.8
2023-12-29T04:06:43.029Z,9.8
2023-12-29T04:11:43.036Z,10.7
2023-12-29T04:16:43.043Z,11.4
2023-12-29T04:21:43.041Z,11.5
2023-12-29T04:26:43.012Z,11.5
2023-12-29T04:31:43.044Z,11.4
2023-12-29T04:36:43.009Z,11.6
2023-12-29T04:41:43.057Z,11.6
2023-12-29T04:46:43.034Z,11.6
2023-12-29T04:51:43.000Z,13.1
2023-12-29T04:56:43.036Z,13.2
2023-12-29T05:01:43.112Z,14
2023-12-29T05:06:43.110Z,14.6
2023-12-29T05:11:43.036Z,14
2023-12-29T05:16:43.024Z,14
2023-12-29T05:21:43.080Z,13.2
2023-12-29T05:26:43.045Z,13.2
2023-12-29T05:31:44.119Z,14
2023-12-29T05:36:43.042Z,13.8
2023-12-29T05:41:42.995Z,13.8
2023-12-29T05:46:42.979Z,13.8
2023-12-29T05:51:43.054Z,15.8
2023-12-29T05:56:42.986Z,15.8
2023-12-29T06:01:43.147Z,15.8
2023-12-29T06:06:43.063Z,15.7
2023-12-29T06:11:43.141Z,15.8
2023-12-29T06:16:43.254Z,15.8
2023-12-29T06:21:43.018Z,15.7
2023-12-29T06:26:43.043Z,15.2
2023-12-29T06:31:43.328Z,15.2
2023-12-29T06:36:43.054Z,15.2
2023-12-29T06:41:43.057Z,14.4
2023-12-29T06:46:43.013Z,14.4
2023-12-29T06:51:43.096Z,13.6
2023-12-29T06:56:43.039Z,13.6
2023-12-29T07:01:43.068Z,13.4
2023-12-29T07:06:43.037Z,12.5
2023-12-29T07:11:43.031Z,12
2023-12-29T07:16:43.512Z,11.5
2023-12-29T07:21:43.102Z,11.5
2023-12-29T07:26:43.243Z,11
2023-12-29T07:31:43.076Z,11
2023-12-29T07:36:43.032Z,11
2023-12-29T07:41:43.084Z,11
2023-12-29T07:46:43.301Z,10.4
2023-12-29T07:51:43.630Z,11
2023-12-29T07:56:43.053Z,11
2023-12-29T08:01:43.080Z,11
2023-12-29T08:06:43.152Z,10.3
2023-12-29T08:11:43.062Z,10
2023-12-29T08:16:43.028Z,9.7
2023-12-29T08:21:43.274Z,10
2023-12-29T08:26:43.038Z,10
2023-12-29T08:31:43.060Z,10
2023-12-29T08:36:43.074Z,10
2023-12-29T08:41:43.033Z,10
2023-12-29T08:46:43.344Z,10.2
2023-12-29T08:51:43.048Z,10.2
2023-12-29T08:56:43.020Z,10.8
2023-12-29T09:01:43.153Z,10.8
2023-12-29T09:06:43.128Z,10.8
2023-12-29T09:11:43.033Z,10.8
2023-12-29T09:16:46.026Z,10.8
2023-12-29T09:21:43.454Z,10.8
2023-12-29T09:26:43.046Z,11
2023-12-29T09:31:43.090Z,11.2
2023-12-29T09:36:43.147Z,11
2023-12-29T09:41:43.111Z,11.2
2023-12-29T09:46:43.036Z,14
2023-12-29T09:51:43.097Z,15.1
2023-12-29T09:56:43.419Z,15.1
2023-12-29T10:01:43.098Z,15.1
2023-12-29T10:06:43.348Z,16.4
2023-12-29T10:11:43.067Z,16.4
2023-12-29T10:16:43.041Z,16.4
2023-12-29T10:21:43.126Z,13.7
2023-12-29T10:26:43.094Z,12
2023-12-29T10:31:43.421Z,12
2023-12-29T10:36:43.098Z,12
2023-12-29T10:41:43.065Z,11.7
2023-12-29T10:46:43.126Z,12
2023-12-29T10:51:43.087Z,12
2023-12-29T10:56:43.034Z,12
2023-12-29T11:01:43.429Z,12
2023-12-29T11:06:43.103Z,12
2023-12-29T11:11:43.073Z,12
2023-12-29T11:16:43.065Z,12.7
2023-12-29T11:21:43.055Z,12.7
2023-12-29T11:26:43.045Z,12.7
2023-12-29T11:31:43.341Z,12.7
2023-12-29T11:36:43.101Z,12.7
2023-12-29T11:41:43.098Z,13.6
2023-12-29T11:46:43.076Z,12.6
2023-12-29T11:51:43.068Z,12.4
2023-12-29T11:56:43.111Z,11.9
2023-12-29T12:01:43.245Z,10.5
2023-12-29T12:06:43.099Z,9.8
2023-12-29T12:11:43.103Z,9.8
2023-12-29T12:16:43.104Z,9.2
2023-12-29T12:21:43.122Z,9.1
2023-12-29T12:26:43.109Z,8.3
2023-12-29T12:31:43.056Z,8.3
2023-12-29T12:36:43.087Z,8.3
2023-12-29T12:41:43.078Z,7.1
2023-12-29T12:46:43.309Z,7.1
2023-12-29T12:51:43.116Z,8.3
2023-12-29T12:56:43.083Z,9
2023-12-29T13:01:43.329Z,9
2023-12-29T13:06:43.149Z,9
2023-12-29T13:11:43.452Z,6.7
2023-12-29T13:16:43.160Z,4.9
2023-12-29T13:21:43.108Z,4.2
2023-12-29T13:26:43.107Z,2.6
2023-12-29T13:31:43.101Z,2.6
2023-12-29T13:36:43.148Z,2.6
2023-12-29T13:41:43.170Z,2.6
2023-12-29T13:46:43.141Z,2.5
2023-12-29T13:51:43.684Z,2.5
2023-12-29T13:56:43.111Z,2.1
2023-12-29T14:01:43.181Z,2.1
2023-12-29T14:06:43.181Z,2.1
2023-12-29T14:11:43.082Z,2.2
2023-12-29T14:16:43.078Z,9.1
2023-12-29T14:21:43.113Z,6.75
2023-12-29T14:26:43.105Z,9.1
2023-12-29T14:31:43.107Z,6.75
2023-12-29T14:36:43.188Z,4.4
2023-12-29T14:41:43.101Z,3.65
2023-12-29T14:46:43.363Z,3.1
2023-12-29T14:51:43.186Z,3.1
2023-12-29T14:56:43.100Z,2.9
2023-12-29T15:01:43.171Z,2.9
2023-12-29T15:06:43.105Z,2.6
2023-12-29T15:11:43.101Z,2.8
2023-12-29T15:16:43.168Z,2.8
2023-12-29T15:21:43.142Z,2.8
2023-12-29T15:26:43.192Z,2.8
2023-12-29T15:31:43.232Z,5.2
2023-12-29T15:36:43.138Z,12.2
2023-12-29T15:41:43.069Z,12.2
2023-12-29T15:46:43.134Z,12.2
2023-12-29T15:51:43.069Z,12.7
2023-12-29T15:56:43.142Z,12.7
2023-12-29T16:01:43.119Z,12
2023-12-29T16:06:43.553Z,11.8
2023-12-29T16:11:43.168Z,11.5
2023-12-29T16:16:43.134Z,11.5
2023-12-29T16:21:43.185Z,9.6
2023-12-29T16:26:47.333Z,8
2023-12-29T16:31:43.280Z,6
2023-12-29T16:36:43.164Z,5.2
2023-12-29T16:41:43.161Z,5.2
2023-12-29T16:46:43.137Z,6
2023-12-29T16:51:46.186Z,6
2023-12-29T16:56:43.195Z,6.6
2023-12-29T17:01:43.596Z,7.1
2023-12-29T17:06:43.201Z,7.5
2023-12-29T17:11:43.183Z,7.5
2023-12-29T17:16:43.152Z,7.1
2023-12-29T17:21:43.137Z,6.6
2023-12-29T17:26:43.129Z,6.4
2023-12-29T17:31:43.159Z,4.7
2023-12-29T17:36:43.192Z,4.7
2023-12-29T17:41:43.111Z,4.7
2023-12-29T17:46:43.157Z,4.7
2023-12-29T17:51:43.139Z,4.7
2023-12-29T17:56:43.173Z,4.7
2023-12-29T18:01:43.183Z,5
2023-12-29T18:06:49.453Z,5
2023-12-29T18:11:43.189Z,4.4
2023-12-29T18:16:43.200Z,4.4
2023-12-29T18:21:43.175Z,4.4
2023-12-29T18:26:43.187Z,8.1
2023-12-29T18:31:43.188Z,8.1
2023-12-29T18:36:43.163Z,5.2
2023-12-29T18:41:43.173Z,5.2
2023-12-29T18:46:43.200Z,5.2
2023-12-29T18:51:43.178Z,5
2023-12-29T18:56:43.181Z,4.9
2023-12-29T19:01:43.237Z,4.9
2023-12-29T19:06:43.151Z,4.6
2023-12-29T19:11:43.160Z,4.3
2023-12-29T19:16:43.119Z,4.3
2023-12-29T19:21:43.500Z,4.6
2023-12-29T19:26:43.672Z,4.6
2023-12-29T19:31:43.156Z,4.6
2023-12-29T19:36:43.181Z,4.6
2023-12-29T19:41:43.154Z,4.6
2023-12-29T19:46:43.200Z,4.6
2023-12-29T19:51:43.188Z,4.6
2023-12-29T19:56:43.154Z,4.4
2023-12-29T20:01:47.162Z,4.4
2023-12-29T20:06:43.222Z,4.6
2023-12-29T20:11:43.162Z,4.4
2023-12-29T20:16:43.232Z,5.2
2023-12-29T20:21:43.202Z,5.2
2023-12-29T20:26:43.196Z,5.3
2023-12-29T20:31:43.273Z,6.1
2023-12-29T20:36:43.271Z,6.2
2023-12-29T20:41:43.167Z,7
2023-12-29T20:46:43.248Z,7.6
2023-12-29T20:51:43.172Z,8.2
2023-12-29T20:56:43.199Z,8.2
2023-12-29T21:01:43.283Z,9.6
2023-12-29T21:06:43.175Z,9.7
2023-12-29T21:11:43.248Z,9.7
2023-12-29T21:16:43.218Z,10.7
2023-12-29T21:21:43.206Z,10.7
2023-12-29T21:26:43.192Z,9.6
2023-12-29T21:31:43.266Z,9.1
2023-12-29T21:36:43.213Z,9.1
2023-12-29T21:41:43.202Z,8.1
2023-12-29T21:46:43.254Z,7.9
2023-12-29T21:51:43.400Z,7.9
2023-12-29T21:56:43.211Z,7.9
2023-12-29T22:01:43.271Z,7.7
2023-12-29T22:06:43.207Z,7.4
2023-12-29T22:11:43.203Z,6.4
2023-12-29T22:16:43.173Z,5.9
2023-12-29T22:21:43.161Z,4.8
2023-12-29T22:26:43.233Z,4.8
2023-12-29T22:31:43.235Z,4.8
2023-12-29T22:36:43.184Z,4.8
2023-12-29T22:41:44.255Z,6.4
2023-12-29T22:46:43.231Z,6.5
2023-12-29T22:51:43.221Z,6.5
2023-12-29T22:56:43.146Z,6.5
2023-12-29T23:01:43.251Z,6.5
2023-12-29T23:06:43.194Z,6.5
2023-12-29T23:11:43.233Z,6.5
2023-12-29T23:16:43.194Z,6.5
2023-12-29T23:21:44.217Z,6.5
2023-12-29T23:26:43.236Z,7
2023-12-29T23:31:43.256Z,7.5
2023-12-29T23:36:43.282Z,7.5
2023-12-29T23:41:43.168Z,7.5
2023-12-29T23:46:43.201Z,7.5
2023-12-29T23:51:43.401Z,7.5
2023-12-29T23:56:43.221Z,7.5
